Time;durP1;ratioP1;P1;durP2;ratioP2;P2;SDS_P1;SDS_P2;PMS_P1;PMS_P2;Temp;Humidity;BMP_temperature;BMP_pressure;BME280_temperature;BME280_humidity;BME280_pressure;Samples;Min_cycle;Max_cycle;Signal;HPM_P1;HPM_P2
2022/01/13 00:02:24;;;;;;;34.13;14.32;;;;;;;-6.56;100.00;100301.69;5151728;27;20130;-50
2022/01/13 00:04:51;;;;;;;36.15;14.90;;;;;;;-6.54;100.00;100291.63;5151520;27;20569;-50
2022/01/13 00:07:17;;;;;;;35.97;14.05;;;;;;;-6.52;100.00;100282.38;5151711;27;20103;-53
2022/01/13 00:09:44;;;;;;;43.17;14.80;;;;;;;-6.51;100.00;100269.84;5151591;27;20051;-52
2022/01/13 00:12:12;;;;;;;38.70;14.20;;;;;;;-6.49;100.00;100267.78;5151857;27;20042;-54
2022/01/13 00:14:51;;;;;;;30.63;14.00;;;;;;;-6.51;100.00;100259.97;5151603;27;20050;-50
2022/01/13 00:17:43;;;;;;;36.63;14.60;;;;;;;-6.46;100.00;100275.31;5151352;27;20046;-51
2022/01/13 00:20:27;;;;;;;33.05;14.02;;;;;;;-6.47;100.00;100274.50;5151732;27;20042;-51
2022/01/13 00:25:35;;;;;;;29.35;13.65;;;;;;;-6.30;100.00;100265.84;5150417;27;20042;-52
2022/01/13 00:28:06;;;;;;;39.47;15.90;;;;;;;-6.26;100.00;100259.84;5150973;27;20103;-50
2022/01/13 00:30:32;;;;;;;36.10;15.40;;;;;;;-6.25;100.00;100239.31;5151412;27;20046;-51
2022/01/13 00:32:58;;;;;;;33.65;15.45;;;;;;;-6.30;100.00;100231.97;5151119;27;20432;-52
2022/01/13 00:35:25;;;;;;;33.03;14.00;;;;;;;-6.17;100.00;100236.31;5151349;27;20119;-53
2022/01/13 00:37:51;;;;;;;38.05;15.07;;;;;;;-6.05;100.00;100237.16;5151090;27;20057;-53
2022/01/13 00:40:18;;;;;;;39.05;14.77;;;;;;;-6.03;100.00;100236.91;5151388;27;20051;-50
2022/01/13 00:42:44;;;;;;;44.50;16.70;;;;;;;-6.02;100.00;100226.00;5152194;27;20458;-53
2022/01/13 00:45:14;;;;;;;36.83;15.15;;;;;;;-6.00;100.00;100229.28;5154621;27;20043;-53
2022/01/13 00:47:40;;;;;;;36.92;15.45;;;;;;;-5.96;100.00;100224.28;5154912;27;20514;-51
2022/01/13 00:50:08;;;;;;;36.55;14.95;;;;;;;-5.96;100.00;100227.78;5154507;27;20174;-51
2022/01/13 00:52:34;;;;;;;39.22;16.98;;;;;;;-5.94;100.00;100222.19;5154832;27;20130;-50
2022/01/13 00:55:05;;;;;;;35.35;15.32;;;;;;;-5.91;100.00;100213.69;5154521;27;20058;-50
2022/01/13 00:57:32;;;;;;;37.30;15.48;;;;;;;-5.84;100.00;100229.59;5154456;27;20046;-52
2022/01/13 00:59:59;;;;;;;47.85;16.45;;;;;;;-5.81;100.00;100216.59;5154286;27;20053;-53
2022/01/13 01:02:25;;;;;;;44.10;17.88;;;;;;;-5.81;100.00;100219.25;5154691;27;20050;-50
2022/01/13 01:04:51;;;;;;;43.42;18.48;;;;;;;-5.81;100.00;100205.09;5154349;27;20098;-50
2022/01/13 01:07:17;;;;;;;43.25;18.13;;;;;;;-5.81;100.00;100229.13;5154110;27;20096;-50
2022/01/13 01:09:49;;;;;;;38.47;16.52;;;;;;;-5.75;100.00;100228.22;5154486;27;20051;-51
2022/01/13 01:12:16;;;;;;;45.42;17.88;;;;;;;-5.74;100.00;100227.16;5154245;27;20054;-50
2022/01/13 01:14:47;;;;;;;42.78;16.20;;;;;;;-5.73;100.00;100239.47;5154098;27;20054;-50
2022/01/13 01:17:15;;;;;;;49.40;18.92;;;;;;;-5.73;100.00;100228.78;5153953;27;20146;-54
2022/01/13 01:19:44;;;;;;;47.65;19.35;;;;;;;-5.62;100.00;100232.53;5154288;27;20439;-53
2022/01/13 01:22:37;;;;;;;45.03;19.42;;;;;;;-5.61;100.00;100228.81;5153966;27;20082;-50
2022/01/13 01:28:01;;;;;;;53.45;19.27;;;;;;;-5.61;100.00;100220.78;5089706;28;20411;-50
2022/01/13 01:30:34;;;;;;;52.65;19.48;;;;;;;-5.58;100.00;100231.00;5138858;27;20043;-51
2022/01/13 01:33:02;;;;;;;52.72;20.05;;;;;;;-5.57;100.00;100229.97;5154021;27;20099;-51
2022/01/13 01:35:28;;;;;;;62.53;22.35;;;;;;;-5.54;100.00;100224.97;5153758;27;20545;-50
2022/01/13 01:37:55;;;;;;;59.67;21.08;;;;;;;-5.50;100.00;100225.31;5154234;27;20050;-50
2022/01/13 01:40:22;;;;;;;47.42;20.00;;;;;;;-5.41;100.00;100218.56;5153776;27;20086;-51
2022/01/13 01:42:49;;;;;;;48.63;20.20;;;;;;;-5.34;100.00;100213.91;5154077;27;20054;-50
2022/01/13 01:45:18;;;;;;;55.60;20.90;;;;;;;-5.29;100.00;100213.22;5153834;27;20079;-53
2022/01/13 01:47:45;;;;;;;51.08;21.02;;;;;;;-5.29;100.00;100211.34;5153900;27;20138;-50
2022/01/13 01:50:18;;;;;;;63.53;21.42;;;;;;;-5.20;100.00;100201.09;5153703;27;20137;-53
2022/01/13 01:52:45;;;;;;;55.25;22.33;;;;;;;-5.20;100.00;100185.06;5153576;27;20050;-53
2022/01/13 01:55:11;;;;;;;52.92;19.52;;;;;;;-5.19;100.00;100189.38;5152520;27;20050;-51
2022/01/13 01:57:38;;;;;;;60.30;20.73;;;;;;;-5.15;100.00;100174.47;5153790;27;20057;-51
2022/01/13 02:00:09;;;;;;;52.58;21.33;;;;;;;-5.17;100.00;100178.44;5153897;27;20055;-52
2022/01/13 02:02:35;;;;;;;49.75;19.92;;;;;;;-5.18;100.00;100174.94;5153503;27;20042;-54
2022/01/13 02:05:03;;;;;;;52.65;21.88;;;;;;;-5.17;100.00;100183.78;5153557;27;20194;-51
2022/01/13 02:07:29;;;;;;;47.35;19.48;;;;;;;-5.12;100.00;100166.00;5153458;27;20054;-52
2022/01/13 02:09:55;;;;;;;50.53;19.10;;;;;;;-5.18;100.00;100150.09;5153689;27;20106;-49
2022/01/13 02:12:35;;;;;;;50.60;21.38;;;;;;;-5.15;100.00;100152.28;5153281;27;20050;-52
2022/01/13 02:17:48;;;;;;;44.53;18.70;;;;;;;-5.12;100.00;100159.84;5153584;27;20054;-50
2022/01/13 02:20:17;;;;;;;50.25;19.38;;;;;;;-5.13;100.00;100142.16;5153094;27;20051;-50
2022/01/13 02:22:43;;;;;;;51.90;19.35;;;;;;;-5.13;100.00;100128.78;5153342;27;20073;-51
2022/01/13 02:25:12;;;;;;;48.67;19.85;;;;;;;-5.15;100.00;100122.88;5153426;27;20078;-49
2022/01/13 02:27:39;;;;;;;48.85;21.00;;;;;;;-5.04;100.00;100119.34;5153029;27;20051;-49
2022/01/13 02:30:06;;;;;;;48.50;20.55;;;;;;;-5.02;100.00;100102.00;5152948;27;20046;-49
2022/01/13 02:32:32;;;;;;;50.33;20.23;;;;;;;-5.00;100.00;100085.72;5153371;27;20072;-49
2022/01/13 02:34:58;;;;;;;57.92;20.75;;;;;;;-5.01;100.00;100078.75;5152842;27;20096;-54
2022/01/13 02:37:25;;;;;;;47.13;20.40;;;;;;;-4.93;100.00;100082.88;5152914;27;20141;-50
2022/01/13 02:39:51;;;;;;;51.10;21.15;;;;;;;-4.91;100.00;100080.78;5152915;27;20047;-49
2022/01/13 02:42:18;;;;;;;54.25;21.10;;;;;;;-4.87;100.00;100077.38;5152829;27;20178;-53
2022/01/13 02:44:50;;;;;;;53.47;21.40;;;;;;;-4.79;100.00;100081.56;5152959;27;20086;-51
2022/01/13 02:47:36;;;;;;;52.17;20.75;;;;;;;-4.80;100.00;100077.22;5152800;27;20115;-52
2022/01/13 02:50:03;;;;;;;53.00;21.60;;;;;;;-4.73;100.00;100075.25;5153068;27;20051;-51
2022/01/13 02:52:31;;;;;;;55.47;20.65;;;;;;;-4.67;100.00;100073.44;5152647;27;20501;-51
2022/01/13 02:54:57;;;;;;;57.78;23.45;;;;;;;-4.68;100.00;100053.09;5152991;27;20050;-49
2022/01/13 02:57:23;;;;;;;59.22;23.85;;;;;;;-4.64;100.00;100055.03;5152716;27;20046;-50
2022/01/13 02:59:50;;;;;;;51.13;21.95;;;;;;;-4.61;100.00;100038.50;5152891;27;20046;-52
2022/01/13 03:02:16;;;;;;;63.15;23.33;;;;;;;-4.59;100.00;100030.25;5152532;27;20054;-52
2022/01/13 03:04:46;;;;;;;59.83;23.75;;;;;;;-4.60;100.00;100031.28;5152442;27;20047;-50
2022/01/13 03:07:12;;;;;;;62.22;23.02;;;;;;;-4.57;100.00;100018.22;5152567;27;20042;-52
2022/01/13 03:09:39;;;;;;;56.35;22.88;;;;;;;-4.52;100.00;100017.50;5152383;27;20055;-50
2022/01/13 03:12:06;;;;;;;64.45;25.10;;;;;;;-4.48;100.00;100015.16;5152573;27;20085;-50
2022/01/13 03:14:32;;;;;;;62.72;23.70;;;;;;;-4.42;100.00;100000.78;5152225;27;20056;-51
2022/01/13 03:16:58;;;;;;;64.57;25.33;;;;;;;-4.45;100.00;99985.22;5152414;27;20055;-53
2022/01/13 03:19:25;;;;;;;65.18;24.88;;;;;;;-4.40;100.00;99983.41;5152157;27;20090;-50
2022/01/13 03:21:51;;;;;;;59.10;24.00;;;;;;;-4.38;100.00;100009.94;5152638;27;20511;-53
2022/01/13 03:24:17;;;;;;;60.47;25.35;;;;;;;-4.30;100.00;100025.56;5152155;27;20090;-50
2022/01/13 03:26:47;;;;;;;64.13;24.23;;;;;;;-4.32;100.00;100030.38;5152482;27;20505;-52
2022/01/13 03:29:19;;;;;;;67.85;27.65;;;;;;;-4.33;100.00;100018.03;5151609;27;20466;-50
2022/01/13 03:31:46;;;;;;;75.65;27.15;;;;;;;-4.21;100.00;100013.41;5152008;27;20053;-51
2022/01/13 03:34:14;;;;;;;79.22;30.08;;;;;;;-4.10;100.00;100009.81;5152089;27;20178;-52
2022/01/13 03:36:40;;;;;;;76.85;28.92;;;;;;;-4.05;100.00;100006.38;5151966;27;20046;-54
2022/01/13 03:39:08;;;;;;;78.50;29.80;;;;;;;-4.04;100.00;99992.72;5151968;27;20076;-49
2022/01/13 03:41:36;;;;;;;84.05;28.80;;;;;;;-3.92;100.00;99983.78;5151859;27;20056;-49
2022/01/13 03:44:06;;;;;;;80.53;29.85;;;;;;;-3.86;100.00;99985.47;5151830;27;20560;-50
2022/01/13 03:46:35;;;;;;;74.18;29.08;;;;;;;-3.81;100.00;99948.81;5151870;27;20082;-52
2022/01/13 03:49:01;;;;;;;78.65;28.92;;;;;;;-3.79;100.00;99933.31;5152233;27;20082;-49
2022/01/13 03:52:07;;;;;;;79.55;29.27;;;;;;;-3.66;100.00;99931.31;5151968;27;20402;-50
2022/01/13 03:55:36;;;;;;;75.47;30.33;;;;;;;-3.53;100.00;99912.16;5151605;27;20141;-52
2022/01/13 03:58:47;;;;;;;71.82;28.60;;;;;;;-3.52;100.00;99891.50;5151476;27;20081;-50
2022/01/13 04:01:46;;;;;;;75.55;27.85;;;;;;;-3.51;100.00;99888.56;5151808;27;20050;-53
2022/01/13 04:04:13;;;;;;;83.07;29.70;;;;;;;-3.43;100.00;99874.72;5110437;27;20107;-53
2022/01/13 04:06:41;;;;;;;84.57;30.73;;;;;;;-3.39;100.00;99872.31;5151658;27;20520;-50
2022/01/13 04:09:20;;;;;;;76.50;30.02;;;;;;;-3.37;100.00;99870.19;5151593;27;20473;-50
2022/01/13 04:11:46;;;;;;;78.85;28.92;;;;;;;-3.36;100.00;99874.50;5151519;27;20042;-54
2022/01/13 04:14:12;;;;;;;76.57;28.92;;;;;;;-3.29;100.00;99866.25;5151365;27;20051;-51
2022/01/13 04:16:39;;;;;;;74.32;30.98;;;;;;;-3.22;100.00;99837.31;5151282;27;20053;-53
2022/01/13 04:19:08;;;;;;;84.18;31.90;;;;;;;-3.24;100.00;99850.97;5151321;27;20042;-53
2022/01/13 04:21:38;;;;;;;83.82;30.60;;;;;;;-3.19;100.00;99832.25;5151176;27;20042;-51
2022/01/13 04:24:05;;;;;;;70.18;28.38;;;;;;;-3.20;100.00;99829.81;5151526;27;20435;-53
2022/01/13 04:26:34;;;;;;;68.35;28.13;;;;;;;-3.27;100.00;99826.53;5151330;27;20050;-52
2022/01/13 04:29:16;;;;;;;73.90;28.33;;;;;;;-3.27;100.00;99821.19;5151136;27;20576;-50
2022/01/13 04:31:45;;;;;;;80.32;30.10;;;;;;;-3.24;100.00;99818.00;5151153;27;20046;-51
2022/01/13 04:34:11;;;;;;;86.32;30.50;;;;;;;-3.22;100.00;99824.72;5151209;27;20051;-51
2022/01/13 04:36:39;;;;;;;81.80;32.53;;;;;;;-3.20;100.00;99813.72;5151022;27;20347;-49
2022/01/13 04:39:07;;;;;;;80.80;31.40;;;;;;;-3.22;100.00;99803.25;5150833;27;20082;-52
2022/01/13 04:41:36;;;;;;;79.85;29.92;;;;;;;-3.21;100.00;99798.69;5150951;27;20075;-53
2022/01/13 04:44:06;;;;;;;100.65;33.05;;;;;;;-3.17;100.00;99819.38;5151102;27;20158;-52
2022/01/13 04:46:32;;;;;;;80.90;31.45;;;;;;;-3.16;100.00;99825.56;5151228;27;20102;-50
2022/01/13 04:48:59;;;;;;;83.32;30.15;;;;;;;-3.16;100.00;99834.41;5150920;27;20053;-53
2022/01/13 04:51:26;;;;;;;79.07;31.10;;;;;;;-3.13;100.00;99839.28;5151055;27;20047;-52
2022/01/13 04:53:53;;;;;;;75.40;30.88;;;;;;;-3.13;100.00;99841.94;5150867;27;20527;-50
2022/01/13 04:56:28;;;;;;;91.13;32.30;;;;;;;-3.10;100.00;99841.44;5151260;27;20141;-58
2022/01/13 04:58:55;;;;;;;79.60;30.35;;;;;;;-3.04;100.00;99839.56;5150745;27;20055;-52
2022/01/13 05:01:22;;;;;;;90.80;32.13;;;;;;;-2.91;100.00;99839.13;5150862;27;20053;-53
2022/01/13 05:03:48;;;;;;;76.50;30.25;;;;;;;-2.76;100.00;99838.41;5150994;27;20058;-54
2022/01/13 05:06:17;;;;;;;78.93;32.22;;;;;;;-2.66;100.00;99833.09;5150422;27;20050;-51
2022/01/13 05:08:44;;;;;;;85.38;29.85;;;;;;;-2.53;100.00;99825.63;5153700;27;20421;-53
2022/01/13 05:11:11;;;;;;;79.80;31.10;;;;;;;-2.48;100.00;99807.66;5150620;27;20123;-54
2022/01/13 05:13:37;;;;;;;72.95;29.40;;;;;;;-2.37;100.00;99793.22;5150767;27;20056;-53
2022/01/13 05:16:04;;;;;;;76.05;29.73;;;;;;;-2.29;100.00;99791.09;5161995;27;20165;-52
2022/01/13 05:18:44;;;;;;;77.90;31.40;;;;;;;-2.30;100.00;99797.50;5171492;27;20042;-52
2022/01/13 05:21:20;;;;;;;96.05;34.55;;;;;;;-2.21;100.00;99782.50;5171244;27;20053;-52
2022/01/13 05:23:46;;;;;;;91.47;32.83;;;;;;;-2.24;100.00;99777.66;5153982;27;20135;-55
2022/01/13 05:26:13;;;;;;;77.35;30.83;;;;;;;-2.25;100.00;99787.59;5150448;27;20471;-55
2022/01/13 05:28:41;;;;;;;82.95;31.83;;;;;;;-2.30;100.00;99776.84;5149780;27;20099;-52
2022/01/13 05:31:07;;;;;;;88.90;32.63;;;;;;;-2.40;100.00;99776.81;5153591;27;20397;-55
2022/01/13 05:33:33;;;;;;;87.57;32.80;;;;;;;-2.46;100.00;99765.25;5153647;27;20051;-51
2022/01/13 05:36:01;;;;;;;103.25;34.80;;;;;;;-2.47;100.00;99741.34;5153916;27;20042;-50
2022/01/13 05:38:28;;;;;;;82.05;29.35;;;;;;;-2.43;100.00;99735.19;5153533;27;20093;-54
2022/01/13 05:40:54;;;;;;;90.97;32.58;;;;;;;-2.43;100.00;99724.47;5153578;27;20121;-53
2022/01/13 05:43:21;;;;;;;85.68;33.17;;;;;;;-2.26;100.00;99693.88;5153522;27;20043;-51
2022/01/13 05:45:47;;;;;;;102.78;35.88;;;;;;;-2.18;100.00;99682.59;5170846;27;20076;-51
2022/01/13 05:48:13;;;;;;;86.78;32.13;;;;;;;-2.23;100.00;99678.03;5174267;27;20515;-52
2022/01/13 05:50:40;;;;;;;85.60;31.92;;;;;;;-2.23;100.00;99672.66;5174194;27;20054;-53
2022/01/13 05:53:06;;;;;;;88.15;32.65;;;;;;;-2.20;100.00;99658.69;5173320;27;20074;-54
2022/01/13 05:55:33;;;;;;;86.80;31.58;;;;;;;-2.15;100.00;99663.25;5173983;27;20133;-51
2022/01/13 05:58:00;;;;;;;78.15;31.88;;;;;;;-2.13;100.00;99651.16;5173845;27;20054;-51
2022/01/13 06:00:27;;;;;;;79.15;30.73;;;;;;;-1.85;100.00;99621.31;5173544;27;20053;-57
2022/01/13 06:02:53;;;;;;;87.10;32.95;;;;;;;-1.73;100.00;99611.88;5174149;27;20073;-57
2022/01/13 06:05:21;;;;;;;84.15;31.70;;;;;;;-1.77;100.00;99623.44;5173898;27;20060;-56
2022/01/13 06:07:47;;;;;;;83.97;32.08;;;;;;;-1.70;100.00;99621.25;5173890;27;20098;-57
2022/01/13 06:10:18;;;;;;;83.40;32.65;;;;;;;-1.73;100.00;99632.59;5173378;27;20042;-54
2022/01/13 06:12:46;;;;;;;83.82;32.38;;;;;;;-1.81;100.00;99625.88;5173679;27;20495;-52
2022/01/13 06:15:14;;;;;;;85.25;32.53;;;;;;;-1.78;100.00;99630.69;5163863;27;20057;-57
2022/01/13 06:17:42;;;;;;;77.80;29.80;;;;;;;-1.78;100.00;99636.06;5173888;27;20378;-55
2022/01/13 06:20:11;;;;;;;79.90;31.85;;;;;;;-1.77;100.00;99628.81;5173586;27;20500;-59
2022/01/13 06:22:39;;;;;;;77.45;31.33;;;;;;;-1.77;100.00;99621.56;5167568;27;20477;-56
2022/01/13 06:25:08;;;;;;;86.43;33.63;;;;;;;-1.80;100.00;99616.75;5163677;27;20047;-57
2022/01/13 06:27:35;;;;;;;89.80;33.17;;;;;;;-1.74;100.00;99609.44;5167435;27;20070;-56
2022/01/13 06:30:01;;;;;;;82.00;31.80;;;;;;;-1.69;100.00;99612.16;5170122;27;20102;-55
2022/01/13 06:32:27;;;;;;;92.47;31.63;;;;;;;-1.59;100.00;99595.19;5170518;27;20042;-56
2022/01/13 06:34:54;;;;;;;85.95;32.88;;;;;;;-1.51;100.00;99590.03;5169839;27;20046;-60
2022/01/13 06:37:21;;;;;;;80.13;32.28;;;;;;;-1.46;100.00;99592.72;5173839;27;20050;-61
2022/01/13 06:39:47;;;;;;;78.00;31.20;;;;;;;-1.39;100.00;99600.47;5173089;27;20042;-58
2022/01/13 06:42:14;;;;;;;79.05;30.55;;;;;;;-1.35;100.00;99588.09;5170640;27;20050;-61
2022/01/13 06:44:40;;;;;;;75.57;29.95;;;;;;;-1.40;100.00;99582.72;5172122;27;20418;-55
2022/01/13 06:47:07;;;;;;;84.68;32.05;;;;;;;-1.48;100.00;99604.81;5173432;27;20081;-55
2022/01/13 06:49:33;;;;;;;75.65;30.13;;;;;;;-1.48;100.00;99589.47;5173422;27;20046;-60
2022/01/13 06:52:01;;;;;;;81.10;31.50;;;;;;;-1.36;100.00;99585.69;5173446;27;20054;-54
2022/01/13 06:54:27;;;;;;;69.93;29.08;;;;;;;-1.37;100.00;99581.38;5173471;27;20492;-56
2022/01/13 06:56:54;;;;;;;78.93;30.65;;;;;;;-1.34;100.00;99578.94;5173207;27;20086;-59
2022/01/13 06:59:20;;;;;;;76.40;31.25;;;;;;;-1.40;100.00;99571.16;5172655;27;20049;-55
2022/01/13 07:01:48;;;;;;;90.15;32.17;;;;;;;-1.36;100.00;99564.16;5172988;27;20050;-54
2022/01/13 07:04:14;;;;;;;71.13;28.13;;;;;;;-1.27;100.00;99559.81;5172892;27;20527;-60
2022/01/13 07:06:42;;;;;;;81.63;30.92;;;;;;;-1.26;100.00;99561.44;5172814;27;20042;-57
2022/01/13 07:09:11;;;;;;;82.90;30.42;;;;;;;-1.15;100.00;99554.91;5173143;27;20050;-57
2022/01/13 07:11:37;;;;;;;73.90;29.38;;;;;;;-1.09;100.00;99534.16;5164589;27;20043;-55
2022/01/13 07:14:04;;;;;;;81.43;31.20;;;;;;;-1.04;100.00;99523.34;5151856;27;20073;-53
2022/01/13 07:16:30;;;;;;;70.55;28.08;;;;;;;-0.99;100.00;99521.44;5152028;27;20406;-50
2022/01/13 07:18:57;;;;;;;77.65;28.83;;;;;;;-1.01;100.00;99512.81;5152062;27;20477;-52
2022/01/13 07:21:26;;;;;;;76.22;29.48;;;;;;;-1.06;100.00;99509.38;5152206;27;20073;-53
2022/01/13 07:23:52;;;;;;;98.85;33.22;;;;;;;-1.02;100.00;99497.78;5152183;27;20076;-54
2022/01/13 07:26:19;;;;;;;76.53;29.00;;;;;;;-0.99;100.00;99481.06;5152358;27;20443;-54
2022/01/13 07:28:46;;;;;;;68.63;28.50;;;;;;;-0.91;100.00;99462.72;5151572;27;20058;-58
2022/01/13 07:31:14;;;;;;;73.88;30.13;;;;;;;-0.89;100.00;99444.41;5151902;27;20043;-55
2022/01/13 07:33:40;;;;;;;73.35;29.08;;;;;;;-0.94;100.00;99439.84;5151809;27;20081;-53
2022/01/13 07:36:06;;;;;;;74.82;27.45;;;;;;;-0.90;100.00;99450.84;5151756;27;20537;-55
2022/01/13 07:38:33;;;;;;;74.05;27.33;;;;;;;-0.90;100.00;99443.59;5151599;27;20047;-55
2022/01/13 07:40:59;;;;;;;72.70;28.30;;;;;;;-0.92;100.00;99445.75;5152086;27;20050;-54
2022/01/13 07:43:26;;;;;;;81.07;27.52;;;;;;;-0.93;100.00;99440.66;5152771;27;20047;-54
2022/01/13 07:45:54;;;;;;;69.00;26.33;;;;;;;-0.87;100.00;99420.69;5151598;27;20126;-52
2022/01/13 07:48:21;;;;;;;75.63;28.38;;;;;;;-0.87;100.00;99404.53;5151234;27;20519;-50
2022/01/13 07:50:47;;;;;;;82.45;29.38;;;;;;;-0.81;100.00;99403.41;5151360;27;20488;-59
2022/01/13 07:53:14;;;;;;;65.93;25.48;;;;;;;-0.75;100.00;99403.06;5150678;27;20043;-51
2022/01/13 07:55:42;;;;;;;73.72;25.90;;;;;;;-0.78;100.00;99387.47;5152419;27;20073;-52
2022/01/13 07:58:09;;;;;;;65.50;24.92;;;;;;;-0.78;100.00;99389.38;5165874;27;20130;-52
2022/01/13 08:00:36;;;;;;;76.60;27.70;;;;;;;-0.76;100.00;99384.53;5151126;27;20156;-53
2022/01/13 08:03:03;;;;;;;66.50;25.38;;;;;;;-0.77;100.00;99394.50;5151654;27;20050;-53
2022/01/13 08:05:30;;;;;;;60.97;23.58;;;;;;;-0.76;100.00;99379.94;5152010;27;20057;-53
2022/01/13 08:07:56;;;;;;;63.67;24.77;;;;;;;-0.75;100.00;99394.19;5151577;27;20535;-54
2022/01/13 08:10:23;;;;;;;72.53;25.15;;;;;;;-0.74;100.00;99418.13;5150981;27;20413;-52
2022/01/13 08:12:49;;;;;;;52.78;21.80;;;;;;;-0.71;100.00;99439.09;5151455;27;20082;-52
2022/01/13 08:15:16;;;;;;;73.95;24.05;;;;;;;-0.72;100.00;99428.63;5150911;27;20054;-54
2022/01/13 08:20:29;;;;;;;54.22;20.95;;;;;;;-0.60;100.00;99387.84;5151093;27;20053;-53
2022/01/13 08:22:56;;;;;;;75.22;23.73;;;;;;;-0.56;100.00;99391.59;5151105;27;20135;-53
2022/01/13 08:25:22;;;;;;;58.00;20.52;;;;;;;-0.50;100.00;99385.03;5152255;27;20054;-55
2022/01/13 08:27:49;;;;;;;50.67;18.95;;;;;;;-0.51;100.00;99384.25;5162236;27;20085;-62
2022/01/13 08:30:15;;;;;;;64.47;22.20;;;;;;;-0.48;100.00;99391.75;5168725;27;20046;-53
2022/01/13 08:32:43;;;;;;;48.78;19.05;;;;;;;-0.52;100.00;99382.63;5171712;27;20077;-52
2022/01/13 08:35:10;;;;;;;83.35;27.88;;;;;;;-0.44;100.00;99381.19;5171931;27;20058;-56
2022/01/13 08:37:36;;;;;;;50.28;20.75;;;;;;;-0.41;100.00;99383.31;5171980;27;20046;-55
2022/01/13 08:40:05;;;;;;;38.78;16.88;;;;;;;-0.41;100.00;99388.72;5171818;27;20071;-54
2022/01/13 08:42:32;;;;;;;48.58;18.75;;;;;;;-0.45;100.00;99381.50;5171590;27;20042;-55
2022/01/13 08:44:58;;;;;;;48.05;17.60;;;;;;;-0.36;100.00;99393.25;5169594;27;20062;-56
2022/01/13 08:47:25;;;;;;;44.22;17.45;;;;;;;-0.34;100.00;99388.38;5171455;27;20110;-55
2022/01/13 08:49:52;;;;;;;52.33;19.35;;;;;;;-0.28;100.00;99382.63;5171619;27;20094;-55
2022/01/13 08:52:18;;;;;;;37.95;16.15;;;;;;;-0.26;100.00;99391.25;5171659;27;20579;-53
2022/01/13 08:54:46;;;;;;;44.00;16.95;;;;;;;-0.22;100.00;99394.16;5171269;27;20191;-52
2022/01/13 08:57:13;;;;;;;40.15;16.20;;;;;;;-0.27;100.00;99380.72;5170982;27;20133;-56
2022/01/13 08:59:39;;;;;;;37.42;14.93;;;;;;;-0.24;100.00;99369.38;5163355;27;20099;-53
2022/01/13 09:02:06;;;;;;;34.83;16.25;;;;;;;-0.19;100.00;99345.09;5150521;27;20055;-55
2022/01/13 09:04:32;;;;;;;34.35;14.25;;;;;;;-0.11;100.00;99335.53;5152789;27;20051;-52
2022/01/13 09:06:59;;;;;;;35.60;14.90;;;;;;;-0.14;100.00;99322.66;5153881;27;20061;-55
2022/01/13 09:09:25;;;;;;;36.30;15.18;;;;;;;-0.06;100.00;99320.13;5153810;27;20054;-56
2022/01/13 09:11:51;;;;;;;36.70;14.52;;;;;;;0.02;100.00;99304.38;5153927;27;20043;-55
2022/01/13 09:14:25;;;;;;;41.03;15.38;;;;;;;0.07;100.00;99286.25;5153934;27;20123;-56
2022/01/13 09:16:52;;;;;;;35.38;14.35;;;;;;;0.14;100.00;99293.97;5154168;27;20141;-53
2022/01/13 09:19:19;;;;;;;31.95;12.93;;;;;;;0.11;100.00;99286.47;5153729;27;20046;-54
2022/01/13 09:21:47;;;;;;;34.88;14.07;;;;;;;0.03;100.00;99281.72;5165372;27;20042;-52
2022/01/13 09:24:16;;;;;;;31.58;13.98;;;;;;;0.00;100.00;99275.03;5161794;27;20050;-51
2022/01/13 09:26:43;;;;;;;27.25;11.95;;;;;;;-0.01;100.00;99284.19;5162337;27;20077;-51
2022/01/13 09:29:11;;;;;;;32.70;13.90;;;;;;;-0.02;100.00;99298.78;5162924;27;20047;-56
2022/01/13 09:31:40;;;;;;;34.38;13.30;;;;;;;0.06;100.00;99278.44;5161106;27;20046;-54
2022/01/13 09:34:08;;;;;;;31.45;12.75;;;;;;;0.03;100.00;99274.44;5153334;27;20069;-50
2022/01/13 09:36:35;;;;;;;29.67;12.27;;;;;;;0.07;100.00;99271.94;5153577;27;20081;-51
2022/01/13 09:39:04;;;;;;;33.47;13.25;;;;;;;0.11;100.00;99281.88;5153254;27;20099;-49
2022/01/13 09:41:33;;;;;;;34.53;14.52;;;;;;;0.16;100.00;99279.06;5153212;27;20130;-51
2022/01/13 09:44:01;;;;;;;29.90;13.07;;;;;;;0.20;100.00;99282.81;5171425;27;20145;-53
2022/01/13 09:46:27;;;;;;;30.90;13.20;;;;;;;0.31;100.00;99261.88;5174714;27;20057;-50
2022/01/13 09:48:55;;;;;;;31.05;11.48;;;;;;;0.37;100.00;99273.41;5170898;27;20076;-49
2022/01/13 09:51:24;;;;;;;30.23;12.13;;;;;;;0.33;100.00;99277.75;5153457;27;20703;-58
2022/01/13 09:53:50;;;;;;;26.45;11.05;;;;;;;0.32;100.00;99292.34;5152858;27;20050;-58
2022/01/13 09:56:16;;;;;;;23.63;10.80;;;;;;;0.34;100.00;99303.66;5154498;27;20078;-58
2022/01/13 09:58:44;;;;;;;27.80;11.75;;;;;;;0.37;100.00;99293.06;5153282;27;20130;-55
2022/01/13 10:01:11;;;;;;;20.67;8.88;;;;;;;0.36;100.00;99272.56;5153442;27;20050;-55
2022/01/13 10:03:37;;;;;;;21.15;9.18;;;;;;;0.41;100.00;99264.41;5153262;27;20159;-56
2022/01/13 10:06:10;;;;;;;31.73;10.73;;;;;;;0.37;100.00;99260.72;5159480;27;20072;-59
2022/01/13 10:08:42;;;;;;;24.77;9.98;;;;;;;0.40;100.00;99252.03;5173944;27;20461;-56
2022/01/13 10:11:24;;;;;;;21.48;9.05;;;;;;;0.41;100.00;99242.03;5174260;27;20098;-57
2022/01/13 10:14:05;;;;;;;29.13;10.98;;;;;;;0.39;100.00;99239.63;5174029;27;20052;-55
2022/01/13 10:16:31;;;;;;;23.85;10.10;;;;;;;0.40;100.00;99227.75;5171599;27;20518;-55
2022/01/13 10:18:57;;;;;;;19.75;9.23;;;;;;;0.46;100.00;99209.56;5174111;27;20046;-56
2022/01/13 10:21:23;;;;;;;19.75;8.73;;;;;;;0.57;100.00;99202.13;5173843;27;20164;-58
2022/01/13 10:24:09;;;;;;;18.17;8.77;;;;;;;0.64;100.00;99173.63;5173806;27;20046;-55
2022/01/13 10:26:35;;;;;;;20.65;8.40;;;;;;;0.66;100.00;99184.13;5164875;27;20077;-57
2022/01/13 10:29:04;;;;;;;22.00;8.38;;;;;;;0.65;100.00;99183.31;5152183;27;20043;-59
2022/01/13 10:31:45;;;;;;;19.75;8.75;;;;;;;0.65;100.00;99169.84;5152929;27;20042;-57
2022/01/13 10:34:19;;;;;;;20.30;8.88;;;;;;;0.68;100.00;99149.56;5152651;27;20047;-56
2022/01/13 10:37:10;;;;;;;19.45;7.90;;;;;;;0.65;100.00;99164.44;5161426;27;20053;-56
2022/01/13 10:40:02;;;;;;;13.80;7.00;;;;;;;0.79;100.00;99159.03;5152476;27;20573;-56
2022/01/13 10:43:06;;;;;;;14.38;6.82;;;;;;;0.75;100.00;99173.44;5152678;27;20068;-54
2022/01/13 10:45:33;;;;;;;17.65;8.20;;;;;;;0.90;100.00;99163.16;5152211;27;20053;-56
2022/01/13 10:48:02;;;;;;;19.05;6.45;;;;;;;0.89;100.00;99163.44;5171421;27;20089;-54
2022/01/13 10:50:30;;;;;;;20.17;7.60;;;;;;;1.04;100.00;99167.75;5158342;27;20050;-58
2022/01/13 10:53:03;;;;;;;15.25;7.63;;;;;;;1.04;100.00;99170.44;5165357;27;20046;-60
2022/01/13 10:55:30;;;;;;;22.42;8.30;;;;;;;1.15;100.00;99166.41;5154862;27;20058;-57
2022/01/13 10:57:58;;;;;;;14.23;6.35;;;;;;;1.18;100.00;99157.72;5168941;27;20077;-57
2022/01/13 11:00:26;;;;;;;18.02;8.70;;;;;;;1.22;100.00;99166.81;5173091;27;20054;-52
2022/01/13 11:03:02;;;;;;;17.45;7.18;;;;;;;1.25;100.00;99181.59;5172020;27;20043;-60
2022/01/13 11:05:30;;;;;;;22.38;7.63;;;;;;;1.21;100.00;99173.31;5172811;27;20061;-57
2022/01/13 11:07:57;;;;;;;20.02;7.05;;;;;;;1.23;100.00;99173.00;5172917;27;20428;-57
2022/01/13 11:10:23;;;;;;;16.08;6.45;;;;;;;1.20;100.00;99165.50;5163552;27;20057;-56
2022/01/13 11:12:56;;;;;;;12.68;5.85;;;;;;;1.18;100.00;99169.31;5153238;27;20082;-56
2022/01/13 11:15:24;;;;;;;17.63;7.20;;;;;;;1.21;100.00;99176.00;5159771;27;20050;-56
2022/01/13 11:17:53;;;;;;;14.32;5.95;;;;;;;1.16;100.00;99168.81;5172387;27;20053;-60
2022/01/13 11:20:21;;;;;;;20.73;7.45;;;;;;;1.18;100.00;99136.09;5172258;27;20059;-61
2022/01/13 11:22:49;;;;;;;13.75;6.15;;;;;;;1.18;100.00;99146.91;5172725;27;20219;-57
2022/01/13 11:25:34;;;;;;;;;;;;;;;;;;;;;
2022/01/13 11:28:01;;;;;;;13.70;5.93;;;;;;;1.27;100.00;99153.19;5169482;27;20058;-59
2022/01/13 11:30:28;;;;;;;12.85;6.07;;;;;;;1.35;100.00;99144.38;5170403;27;20078;-59
2022/01/13 11:32:56;;;;;;;17.25;6.30;;;;;;;1.36;100.00;99150.56;5172683;27;20057;-59